Time,TemperatureF,DewpointF,PressureIn,WindDirection,WindDirectionDegrees,WindSpeedMPH,WindSpeedGustMPH,Humidity,HourlyPrecipIn,Conditions,Clouds,dailyrainin,SoftwareType,DateUTC
2013-06-18 00:13:00,70.5,69.0,29.72,WNW,292,0.0,-999.0,95,-99.99,,,0.00,Acu-Link.com,2013-06-18 04:13:00,
2013-06-18 00:30:00,70.5,69.3,29.72,West,270,0.0,-999.0,96,-99.99,,,0.00,Acu-Link.com,2013-06-18 04:30:00,
2013-06-18 00:54:00,70.3,69.1,29.71,NNW,337,0.0,-999.0,96,-99.99,,,0.00,Acu-Link.com,2013-06-18 04:54:00,
2013-06-18 01:10:00,70.2,69.3,29.71,West,270,0.0,-999.0,97,-99.99,,,0.00,Acu-Link.com,2013-06-18 05:10:00,
2013-06-18 01:25:00,70.0,69.1,29.70,West,270,0.0,-999.0,97,-99.99,,,0.00,Acu-Link.com,2013-06-18 05:25:00,
2013-06-18 01:40:00,70.0,69.1,29.70,West,270,0.0,-999.0,97,-99.99,,,0.00,Acu-Link.com,2013-06-18 05:40:00,
2013-06-18 01:55:00,69.8,68.9,29.70,West,270,0.0,-999.0,97,-99.99,,,0.00,Acu-Link.com,2013-06-18 05:55:00,
2013-06-18 02:10:00,69.8,68.9,29.70,WSW,247,0.0,-999.0,97,-99.99,,,0.00,Acu-Link.com,2013-06-18 06:10:00,
2013-06-18 02:26:00,69.6,68.7,29.69,West,270,0.0,-999.0,97,-99.99,,,0.00,Acu-Link.com,2013-06-18 06:26:00,
2013-06-18 02:44:00,69.6,68.7,29.69,West,270,0.0,-999.0,97,-99.99,,,0.00,Acu-Link.com,2013-06-18 06:44:00,
2013-06-18 03:00:00,69.4,68.5,29.68,West,270,0.0,-999.0,97,-99.99,,,0.00,Acu-Link.com,2013-06-18 07:00:00,
2013-06-18 03:16:00,69.3,68.4,29.68,West,270,0.0,-999.0,97,-99.99,,,0.00,Acu-Link.com,2013-06-18 07:16:00,
2013-06-18 03:31:00,69.1,68.2,29.69,West,270,0.0,-999.0,97,-99.99,,,0.00,Acu-Link.com,2013-06-18 07:31:00,
2013-06-18 03:46:00,68.9,68.0,29.68,WSW,247,0.0,-999.0,97,-99.99,,,0.00,Acu-Link.com,2013-06-18 07:46:00,
2013-06-18 04:01:00,68.4,67.5,29.68,West,270,0.0,-999.0,97,-99.99,,,0.00,Acu-Link.com,2013-06-18 08:01:00,
2013-06-18 04:17:00,68.4,67.5,29.68,WNW,292,0.0,-999.0,97,-99.99,,,0.00,Acu-Link.com,2013-06-18 08:17:00,
2013-06-18 04:32:00,68.0,67.1,29.68,West,270,0.0,-999.0,97,-99.99,,,0.00,Acu-Link.com,2013-06-18 08:32:00,
2013-06-18 04:47:00,68.0,67.1,29.68,West,270,0.0,-999.0,97,-99.99,,,0.00,Acu-Link.com,2013-06-18 08:47:00,
2013-06-18 05:09:00,67.6,67.0,29.67,West,270,0.0,-999.0,98,-99.99,,,0.00,Acu-Link.com,2013-06-18 09:09:00,
2013-06-18 05:24:00,67.6,67.0,29.68,West,270,0.0,-999.0,98,-99.99,,,0.00,Acu-Link.com,2013-06-18 09:24:00,
2013-06-18 05:49:00,67.6,67.0,29.68,West,270,0.0,-999.0,98,-99.99,,,0.01,Acu-Link.com,2013-06-18 09:49:00,
2013-06-18 06:24:00,67.8,67.2,29.69,WSW,247,0.0,-999.0,98,-99.99,,,0.09,Acu-Link.com,2013-06-18 10:24:00,
2013-06-18 06:39:00,68.4,68.1,29.68,SW,225,0.0,-999.0,99,-99.99,,,0.12,Acu-Link.com,2013-06-18 10:39:00,
2013-06-18 06:58:00,68.9,68.6,29.68,West,270,0.0,-999.0,99,-99.99,,,0.15,Acu-Link.com,2013-06-18 10:58:00,
2013-06-18 07:13:00,69.1,68.8,29.69,WSW,247,0.0,-999.0,99,-99.99,,,0.15,Acu-Link.com,2013-06-18 11:13:00,
2013-06-18 07:28:00,69.3,69.0,29.67,SSW,202,2.2,-999.0,99,-99.99,,,0.15,Acu-Link.com,2013-06-18 11:28:00,
2013-06-18 07:43:00,69.6,69.3,29.67,SSW,202,0.0,-999.0,99,-99.99,,,0.15,Acu-Link.com,2013-06-18 11:43:00,
2013-06-18 07:59:00,70.2,69.9,29.69,WNW,292,0.0,-999.0,99,-99.99,,,0.15,Acu-Link.com,2013-06-18 11:59:00,
2013-06-18 08:14:00,70.2,69.9,29.69,West,270,0.0,-999.0,99,-99.99,,,0.16,Acu-Link.com,2013-06-18 12:14:00,
2013-06-18 08:29:00,70.3,70.0,29.68,WSW,247,0.0,-999.0,99,-99.99,,,0.16,Acu-Link.com,2013-06-18 12:29:00,
2013-06-18 08:44:00,70.3,70.0,29.67,SSW,202,2.2,-999.0,99,-99.99,,,0.26,Acu-Link.com,2013-06-18 12:44:00,
2013-06-18 08:59:00,70.9,70.3,29.67,SW,225,1.1,-999.0,98,-99.99,,,0.28,Acu-Link.com,2013-06-18 12:59:00,
2013-06-18 09:14:00,71.1,70.2,29.67,SW,225,0.0,-999.0,97,-99.99,,,0.29,Acu-Link.com,2013-06-18 13:14:00,
2013-06-18 09:29:00,71.1,70.2,29.67,SSW,202,2.2,-999.0,97,-99.99,,,0.29,Acu-Link.com,2013-06-18 13:29:00,
2013-06-18 09:44:00,71.1,70.2,29.67,WSW,247,2.7,-999.0,97,-99.99,,,0.29,Acu-Link.com,2013-06-18 13:44:00,
2013-06-18 09:59:00,70.9,70.0,29.68,SSW,202,3.2,-999.0,97,-99.99,,,0.31,Acu-Link.com,2013-06-18 13:59:00,
2013-06-18 10:15:00,70.7,69.8,29.67,SW,225,2.7,-999.0,97,-99.99,,,0.37,Acu-Link.com,2013-06-18 14:15:00,
2013-06-18 10:30:00,70.9,70.0,29.66,SE,135,4.7,-999.0,97,-99.99,,,0.39,Acu-Link.com,2013-06-18 14:30:00,
2013-06-18 10:45:00,71.4,70.5,29.65,WNW,292,2.7,-999.0,97,-99.99,,,0.39,Acu-Link.com,2013-06-18 14:45:00,
2013-06-18 11:00:00,71.6,70.4,29.67,WNW,292,4.7,-999.0,96,-99.99,,,0.41,Acu-Link.com,2013-06-18 15:00:00,
2013-06-18 11:15:00,71.4,70.5,29.67,SSE,157,0.0,-999.0,97,-99.99,,,0.49,Acu-Link.com,2013-06-18 15:15:00,
2013-06-18 11:30:00,72.3,71.4,29.67,SSW,202,0.0,-999.0,97,-99.99,,,0.49,Acu-Link.com,2013-06-18 15:30:00,
2013-06-18 11:45:00,76.6,74.4,29.66,NNW,337,3.2,-999.0,93,-99.99,,,0.49,Acu-Link.com,2013-06-18 15:45:00,
2013-06-18 12:00:00,82.0,75.9,29.64,SW,225,1.7,-999.0,82,-99.99,,,0.50,Acu-Link.com,2013-06-18 16:00:00,
2013-06-18 12:15:00,81.7,75.3,29.64,SSW,202,3.2,-999.0,81,-99.99,,,0.50,Acu-Link.com,2013-06-18 16:15:00,
2013-06-18 12:31:00,83.1,75.5,29.65,NW,315,2.7,-999.0,78,-99.99,,,0.50,Acu-Link.com,2013-06-18 16:31:00,
2013-06-18 12:46:00,82.6,75.0,29.63,SW,225,2.7,-999.0,78,-99.99,,,0.50,Acu-Link.com,2013-06-18 16:46:00,
2013-06-18 13:01:00,82.8,74.8,29.63,WNW,292,0.0,-999.0,77,-99.99,,,0.50,Acu-Link.com,2013-06-18 17:01:00,
2013-06-18 13:16:00,82.8,74.4,29.63,SSE,157,2.7,-999.0,76,-99.99,,,0.50,Acu-Link.com,2013-06-18 17:16:00,
2013-06-18 13:31:00,84.0,74.4,29.63,South,180,2.2,-999.0,73,-99.99,,,0.50,Acu-Link.com,2013-06-18 17:31:00,
2013-06-18 13:46:00,88.9,74.6,29.61,WNW,292,2.2,-999.0,63,-99.99,,,0.50,Acu-Link.com,2013-06-18 17:46:00,
2013-06-18 14:02:00,81.7,73.0,29.65,ENE,67,4.7,-999.0,75,-99.99,,,0.50,Acu-Link.com,2013-06-18 18:02:00,
2013-06-18 14:17:00,78.3,72.7,29.64,NE,45,1.1,-999.0,83,-99.99,,,0.51,Acu-Link.com,2013-06-18 18:17:00,
2013-06-18 14:32:00,76.8,71.9,29.65,SE,135,2.2,-999.0,85,-99.99,,,0.55,Acu-Link.com,2013-06-18 18:32:00,
2013-06-18 14:47:00,82.0,73.3,29.64,ESE,112,4.7,-999.0,75,-99.99,,,0.55,Acu-Link.com,2013-06-18 18:47:00,
2013-06-18 15:02:00,84.6,72.8,29.65,East,90,4.2,-999.0,68,-99.99,,,0.55,Acu-Link.com,2013-06-18 19:02:00,
2013-06-18 15:17:00,81.5,71.6,29.64,ESE,112,5.3,-999.0,72,-99.99,,,0.55,Acu-Link.com,2013-06-18 19:17:00,
2013-06-18 15:32:00,83.5,71.4,29.65,NNW,337,2.2,-999.0,67,-99.99,,,0.55,Acu-Link.com,2013-06-18 19:32:00,
2013-06-18 15:47:00,84.7,72.9,29.63,NW,315,2.2,-999.0,68,-99.99,,,0.55,Acu-Link.com,2013-06-18 19:47:00,
2013-06-18 16:02:00,80.2,71.1,29.64,ESE,112,4.2,-999.0,74,-99.99,,,0.55,Acu-Link.com,2013-06-18 20:02:00,
2013-06-18 16:18:00,79.5,70.5,29.67,ESE,112,4.2,-999.0,74,-99.99,,,0.55,Acu-Link.com,2013-06-18 20:18:00,
2013-06-18 16:33:00,80.1,69.4,29.65,ENE,67,7.3,-999.0,70,-99.99,,,0.55,Acu-Link.com,2013-06-18 20:33:00,
2013-06-18 16:48:00,81.0,68.5,29.65,ENE,67,3.7,-999.0,66,-99.99,,,0.55,Acu-Link.com,2013-06-18 20:48:00,
2013-06-18 17:03:00,79.0,68.4,29.66,ESE,112,3.2,-999.0,70,-99.99,,,0.55,Acu-Link.com,2013-06-18 21:03:00,
2013-06-18 17:19:00,79.3,68.6,29.66,ESE,112,4.7,-999.0,70,-99.99,,,0.55,Acu-Link.com,2013-06-18 21:19:00,
2013-06-18 17:34:00,78.6,67.6,29.66,East,90,6.8,-999.0,69,-99.99,,,0.55,Acu-Link.com,2013-06-18 21:34:00,
2013-06-18 17:49:00,77.7,67.5,29.67,ENE,67,3.7,-999.0,71,-99.99,,,0.55,Acu-Link.com,2013-06-18 21:49:00,
2013-06-18 18:04:00,77.0,67.3,29.69,East,90,4.2,-999.0,72,-99.99,,,0.55,Acu-Link.com,2013-06-18 22:04:00,
2013-06-18 18:19:00,77.2,67.5,29.66,ESE,112,4.2,-999.0,72,-99.99,,,0.55,Acu-Link.com,2013-06-18 22:19:00,
2013-06-18 18:34:00,76.3,66.6,29.66,East,90,2.7,-999.0,72,-99.99,,,0.55,Acu-Link.com,2013-06-18 22:34:00,
2013-06-18 18:49:00,75.2,66.3,29.66,ENE,67,3.2,-999.0,74,-99.99,,,0.55,Acu-Link.com,2013-06-18 22:49:00,
2013-06-18 19:04:00,75.0,66.5,29.65,East,90,2.7,-999.0,75,-99.99,,,0.55,Acu-Link.com,2013-06-18 23:04:00,
2013-06-18 19:19:00,74.7,67.0,29.65,NNE,22,2.7,-999.0,77,-99.99,,,0.55,Acu-Link.com,2013-06-18 23:19:00,
2013-06-18 19:35:00,74.5,66.8,29.66,NW,315,0.0,-999.0,77,-99.99,,,0.55,Acu-Link.com,2013-06-18 23:35:00,
2013-06-18 19:50:00,74.5,66.8,29.68,ESE,112,0.0,-999.0,77,-99.99,,,0.55,Acu-Link.com,2013-06-18 23:50:00,
2013-06-18 20:05:00,73.8,69.0,29.67,WNW,292,2.2,-999.0,85,-99.99,,,0.55,Acu-Link.com,2013-06-19 00:05:00,
2013-06-18 20:20:00,72.5,68.7,29.69,SW,225,0.0,-999.0,88,-99.99,,,0.55,Acu-Link.com,2013-06-19 00:20:00,
2013-06-18 20:35:00,71.2,67.8,29.70,West,270,0.0,-999.0,89,-99.99,,,0.55,Acu-Link.com,2013-06-19 00:35:00,
2013-06-18 20:50:00,69.8,67.4,29.69,West,270,0.0,-999.0,92,-99.99,,,0.55,Acu-Link.com,2013-06-19 00:50:00,
2013-06-18 21:05:00,68.7,66.9,29.70,West,270,0.0,-999.0,94,-99.99,,,0.55,Acu-Link.com,2013-06-19 01:05:00,
2013-06-18 21:20:00,67.5,66.0,29.72,WNW,292,0.0,-999.0,95,-99.99,,,0.55,Acu-Link.com,2013-06-19 01:20:00,
2013-06-18 21:35:00,67.1,65.3,29.72,West,270,0.0,-999.0,94,-99.99,,,0.55,Acu-Link.com,2013-06-19 01:35:00,
2013-06-18 21:51:00,66.4,65.2,29.73,West,270,0.0,-999.0,96,-99.99,,,0.56,Acu-Link.com,2013-06-19 01:51:00,
2013-06-18 22:06:00,66.0,65.1,29.74,West,270,0.0,-999.0,97,-99.99,,,0.56,Acu-Link.com,2013-06-19 02:06:00,
2013-06-18 22:21:00,65.7,64.8,29.75,West,270,0.0,-999.0,97,-99.99,,,0.56,Acu-Link.com,2013-06-19 02:21:00,
2013-06-18 22:36:00,65.1,64.2,29.75,WNW,292,0.0,-999.0,97,-99.99,,,0.56,Acu-Link.com,2013-06-19 02:36:00,
2013-06-18 22:51:00,64.8,64.2,29.76,West,270,0.0,-999.0,98,-99.99,,,0.56,Acu-Link.com,2013-06-19 02:51:00,
2013-06-18 23:06:00,64.4,63.8,29.76,West,270,0.0,-999.0,98,-99.99,,,0.56,Acu-Link.com,2013-06-19 03:06:00,
2013-06-18 23:21:00,64.0,63.4,29.77,West,270,0.0,-999.0,98,-99.99,,,0.56,Acu-Link.com,2013-06-19 03:21:00,
2013-06-18 23:37:00,63.7,63.1,29.77,West,270,0.0,-999.0,98,-99.99,,,0.56,Acu-Link.com,2013-06-19 03:37:00,
2013-06-18 23:52:00,63.5,62.9,29.77,West,270,0.0,-999.0,98,-99.99,,,0.56,Acu-Link.com,2013-06-19 03:52:00,